sensor_id;sensor_type;location;lat;lon;timestamp;P1;durP1;ratioP1;P2;durP2;ratioP2
11473;SDS011;5793;52.238;13.438;2022-09-29T00:00:47;3.90;;;3.57;;
11473;SDS011;5793;52.238;13.438;2022-09-29T00:03:15;4.67;;;3.93;;
11473;SDS011;5793;52.238;13.438;2022-09-29T00:05:47;4.30;;;3.90;;
11473;SDS011;5793;52.238;13.438;2022-09-29T00:08:17;4.23;;;3.83;;
11473;SDS011;5793;52.238;13.438;2022-09-29T00:10:45;5.00;;;4.23;;
11473;SDS011;5793;52.238;13.438;2022-09-29T00:13:15;4.67;;;4.17;;
11473;SDS011;5793;52.238;13.438;2022-09-29T00:15:43;4.53;;;4.13;;
11473;SDS011;5793;52.238;13.438;2022-09-29T00:18:11;5.37;;;4.30;;
11473;SDS011;5793;52.238;13.438;2022-09-29T00:20:40;4.67;;;4.23;;
11473;SDS011;5793;52.238;13.438;2022-09-29T00:23:07;4.90;;;4.10;;
11473;SDS011;5793;52.238;13.438;2022-09-29T00:25:35;5.37;;;4.87;;
11473;SDS011;5793;52.238;13.438;2022-09-29T00:28:03;6.43;;;5.23;;
11473;SDS011;5793;52.238;13.438;2022-09-29T00:30:32;6.77;;;4.90;;
11473;SDS011;5793;52.238;13.438;2022-09-29T00:33:00;4.70;;;4.10;;
11473;SDS011;5793;52.238;13.438;2022-09-29T00:35:27;6.77;;;5.10;;
11473;SDS011;5793;52.238;13.438;2022-09-29T00:37:55;4.93;;;4.27;;
11473;SDS011;5793;52.238;13.438;2022-09-29T00:40:23;5.83;;;4.50;;
11473;SDS011;5793;52.238;13.438;2022-09-29T00:42:51;5.90;;;4.70;;
11473;SDS011;5793;52.238;13.438;2022-09-29T00:45:19;5.63;;;4.40;;
11473;SDS011;5793;52.238;13.438;2022-09-29T00:47:52;4.60;;;4.20;;
11473;SDS011;5793;52.238;13.438;2022-09-29T00:50:29;5.10;;;4.47;;
11473;SDS011;5793;52.238;13.438;2022-09-29T00:53:05;5.30;;;4.30;;
11473;SDS011;5793;52.238;13.438;2022-09-29T00:55:40;4.80;;;4.30;;
11473;SDS011;5793;52.238;13.438;2022-09-29T00:58:12;5.57;;;4.73;;
11473;SDS011;5793;52.238;13.438;2022-09-29T01:00:47;5.17;;;4.67;;
11473;SDS011;5793;52.238;13.438;2022-09-29T01:03:18;5.97;;;4.80;;
11473;SDS011;5793;52.238;13.438;2022-09-29T01:05:49;4.73;;;4.23;;
11473;SDS011;5793;52.238;13.438;2022-09-29T01:08:22;5.70;;;5.07;;
11473;SDS011;5793;52.238;13.438;2022-09-29T01:10:53;7.40;;;5.47;;
11473;SDS011;5793;52.238;13.438;2022-09-29T01:13:21;5.53;;;4.40;;
11473;SDS011;5793;52.238;13.438;2022-09-29T01:15:50;5.90;;;5.20;;
11473;SDS011;5793;52.238;13.438;2022-09-29T01:18:19;8.20;;;6.23;;
11473;SDS011;5793;52.238;13.438;2022-09-29T01:20:50;6.93;;;5.37;;
11473;SDS011;5793;52.238;13.438;2022-09-29T01:23:31;5.00;;;4.50;;
11473;SDS011;5793;52.238;13.438;2022-09-29T01:26:47;6.53;;;5.77;;
11473;SDS011;5793;52.238;13.438;2022-09-29T01:32:39;9.13;;;7.30;;
11473;SDS011;5793;52.238;13.438;2022-09-29T01:35:19;10.43;;;8.17;;
11473;SDS011;5793;52.238;13.438;2022-09-29T01:37:59;10.43;;;8.50;;
11473;SDS011;5793;52.238;13.438;2022-09-29T01:40:44;8.13;;;6.73;;
11473;SDS011;5793;52.238;13.438;2022-09-29T01:43:21;8.03;;;7.23;;
11473;SDS011;5793;52.238;13.438;2022-09-29T01:45:57;10.50;;;8.20;;
11473;SDS011;5793;52.238;13.438;2022-09-29T01:48:30;12.70;;;9.60;;
11473;SDS011;5793;52.238;13.438;2022-09-29T01:51:03;11.17;;;9.40;;
11473;SDS011;5793;52.238;13.438;2022-09-29T01:53:36;13.10;;;9.73;;
11473;SDS011;5793;52.238;13.438;2022-09-29T01:56:08;12.47;;;9.77;;
11473;SDS011;5793;52.238;13.438;2022-09-29T01:58:42;14.43;;;9.83;;
11473;SDS011;5793;52.238;13.438;2022-09-29T02:01:15;12.47;;;9.10;;
11473;SDS011;5793;52.238;13.438;2022-09-29T02:03:48;12.37;;;9.60;;
11473;SDS011;5793;52.238;13.438;2022-09-29T02:06:21;13.00;;;9.83;;
11473;SDS011;5793;52.238;13.438;2022-09-29T02:08:52;9.33;;;7.87;;
11473;SDS011;5793;52.238;13.438;2022-09-29T02:11:21;12.47;;;8.77;;
11473;SDS011;5793;52.238;13.438;2022-09-29T02:13:51;9.93;;;7.73;;
11473;SDS011;5793;52.238;13.438;2022-09-29T02:16:24;10.30;;;8.37;;
11473;SDS011;5793;52.238;13.438;2022-09-29T02:18:59;10.57;;;8.83;;
11473;SDS011;5793;52.238;13.438;2022-09-29T02:21:30;12.23;;;8.90;;
11473;SDS011;5793;52.238;13.438;2022-09-29T02:23:59;10.27;;;8.33;;
11473;SDS011;5793;52.238;13.438;2022-09-29T02:26:27;11.43;;;8.13;;
11473;SDS011;5793;52.238;13.438;2022-09-29T02:28:58;11.37;;;9.03;;
11473;SDS011;5793;52.238;13.438;2022-09-29T02:31:27;12.10;;;8.80;;
11473;SDS011;5793;52.238;13.438;2022-09-29T02:33:57;11.33;;;8.50;;
11473;SDS011;5793;52.238;13.438;2022-09-29T02:36:28;12.33;;;8.97;;
11473;SDS011;5793;52.238;13.438;2022-09-29T02:39:04;13.40;;;9.57;;
11473;SDS011;5793;52.238;13.438;2022-09-29T02:41:42;11.20;;;8.97;;
11473;SDS011;5793;52.238;13.438;2022-09-29T02:44:20;11.00;;;8.83;;
11473;SDS011;5793;52.238;13.438;2022-09-29T02:47:02;12.03;;;9.50;;
11473;SDS011;5793;52.238;13.438;2022-09-29T02:49:53;12.07;;;9.13;;
11473;SDS011;5793;52.238;13.438;2022-09-29T02:52:33;12.87;;;9.40;;
11473;SDS011;5793;52.238;13.438;2022-09-29T02:55:12;12.20;;;9.77;;
11473;SDS011;5793;52.238;13.438;2022-09-29T02:57:46;13.50;;;10.40;;
11473;SDS011;5793;52.238;13.438;2022-09-29T03:00:20;14.90;;;11.30;;
11473;SDS011;5793;52.238;13.438;2022-09-29T03:02:48;14.80;;;10.77;;
11473;SDS011;5793;52.238;13.438;2022-09-29T03:05:18;16.40;;;12.03;;
11473;SDS011;5793;52.238;13.438;2022-09-29T03:07:47;16.20;;;11.13;;
11473;SDS011;5793;52.238;13.438;2022-09-29T03:10:15;14.67;;;11.10;;
11473;SDS011;5793;52.238;13.438;2022-09-29T03:12:44;14.90;;;10.60;;
11473;SDS011;5793;52.238;13.438;2022-09-29T03:15:12;16.80;;;12.63;;
11473;SDS011;5793;52.238;13.438;2022-09-29T03:17:40;15.90;;;12.03;;
11473;SDS011;5793;52.238;13.438;2022-09-29T03:20:08;16.40;;;11.83;;
11473;SDS011;5793;52.238;13.438;2022-09-29T03:22:38;14.43;;;10.93;;
11473;SDS011;5793;52.238;13.438;2022-09-29T03:25:05;18.07;;;11.67;;
11473;SDS011;5793;52.238;13.438;2022-09-29T03:27:34;15.20;;;11.17;;
11473;SDS011;5793;52.238;13.438;2022-09-29T03:30:04;14.50;;;11.63;;
11473;SDS011;5793;52.238;13.438;2022-09-29T03:32:32;16.00;;;11.33;;
11473;SDS011;5793;52.238;13.438;2022-09-29T03:35:00;14.47;;;10.80;;
11473;SDS011;5793;52.238;13.438;2022-09-29T03:37:28;14.93;;;11.17;;
11473;SDS011;5793;52.238;13.438;2022-09-29T03:39:57;14.60;;;11.30;;
11473;SDS011;5793;52.238;13.438;2022-09-29T03:42:25;14.17;;;10.87;;
11473;SDS011;5793;52.238;13.438;2022-09-29T03:44:53;14.53;;;10.90;;
11473;SDS011;5793;52.238;13.438;2022-09-29T03:47:21;15.90;;;11.80;;
11473;SDS011;5793;52.238;13.438;2022-09-29T03:49:49;14.13;;;11.07;;
11473;SDS011;5793;52.238;13.438;2022-09-29T03:52:17;14.83;;;11.43;;
11473;SDS011;5793;52.238;13.438;2022-09-29T03:54:45;15.27;;;11.17;;
11473;SDS011;5793;52.238;13.438;2022-09-29T03:57:14;16.63;;;11.90;;
11473;SDS011;5793;52.238;13.438;2022-09-29T03:59:42;19.53;;;13.17;;
11473;SDS011;5793;52.238;13.438;2022-09-29T04:02:11;16.57;;;12.57;;
11473;SDS011;5793;52.238;13.438;2022-09-29T04:04:39;15.87;;;12.60;;
11473;SDS011;5793;52.238;13.438;2022-09-29T04:07:07;15.03;;;11.83;;
11473;SDS011;5793;52.238;13.438;2022-09-29T04:09:34;16.50;;;12.63;;
11473;SDS011;5793;52.238;13.438;2022-09-29T04:12:02;17.90;;;12.80;;
11473;SDS011;5793;52.238;13.438;2022-09-29T04:14:32;20.30;;;12.63;;
11473;SDS011;5793;52.238;13.438;2022-09-29T04:16:59;17.17;;;13.03;;
11473;SDS011;5793;52.238;13.438;2022-09-29T04:19:27;17.60;;;12.67;;
11473;SDS011;5793;52.238;13.438;2022-09-29T04:21:55;17.10;;;13.20;;
11473;SDS011;5793;52.238;13.438;2022-09-29T04:24:23;17.77;;;12.60;;
11473;SDS011;5793;52.238;13.438;2022-09-29T04:26:51;15.17;;;12.03;;
11473;SDS011;5793;52.238;13.438;2022-09-29T04:29:19;17.90;;;13.57;;
11473;SDS011;5793;52.238;13.438;2022-09-29T04:31:48;15.47;;;12.37;;
11473;SDS011;5793;52.238;13.438;2022-09-29T04:34:15;17.00;;;13.00;;
11473;SDS011;5793;52.238;13.438;2022-09-29T04:36:44;16.77;;;12.93;;
11473;SDS011;5793;52.238;13.438;2022-09-29T04:39:12;20.07;;;16.03;;
11473;SDS011;5793;52.238;13.438;2022-09-29T04:41:40;16.63;;;13.07;;
11473;SDS011;5793;52.238;13.438;2022-09-29T04:44:07;17.83;;;12.43;;
11473;SDS011;5793;52.238;13.438;2022-09-29T04:46:35;16.97;;;12.47;;
11473;SDS011;5793;52.238;13.438;2022-09-29T04:49:04;17.80;;;12.70;;
11473;SDS011;5793;52.238;13.438;2022-09-29T04:51:32;15.83;;;11.80;;
11473;SDS011;5793;52.238;13.438;2022-09-29T04:54:00;18.47;;;12.50;;
11473;SDS011;5793;52.238;13.438;2022-09-29T04:56:27;15.80;;;12.30;;
11473;SDS011;5793;52.238;13.438;2022-09-29T04:58:56;18.53;;;13.23;;
11473;SDS011;5793;52.238;13.438;2022-09-29T05:01:25;19.53;;;13.53;;
11473;SDS011;5793;52.238;13.438;2022-09-29T05:03:53;17.73;;;12.93;;
11473;SDS011;5793;52.238;13.438;2022-09-29T05:06:22;18.27;;;12.73;;
11473;SDS011;5793;52.238;13.438;2022-09-29T05:08:49;17.63;;;12.10;;
11473;SDS011;5793;52.238;13.438;2022-09-29T05:11:17;17.50;;;11.97;;
11473;SDS011;5793;52.238;13.438;2022-09-29T05:13:47;17.27;;;12.70;;
11473;SDS011;5793;52.238;13.438;2022-09-29T05:16:15;18.80;;;13.17;;
11473;SDS011;5793;52.238;13.438;2022-09-29T05:18:43;16.90;;;11.93;;
11473;SDS011;5793;52.238;13.438;2022-09-29T05:21:11;16.70;;;12.10;;
11473;SDS011;5793;52.238;13.438;2022-09-29T05:23:55;16.27;;;12.30;;
11473;SDS011;5793;52.238;13.438;2022-09-29T05:26:23;18.80;;;12.60;;
11473;SDS011;5793;52.238;13.438;2022-09-29T05:28:51;15.30;;;12.23;;
11473;SDS011;5793;52.238;13.438;2022-09-29T05:31:18;16.10;;;12.37;;
11473;SDS011;5793;52.238;13.438;2022-09-29T05:33:46;17.47;;;12.20;;
11473;SDS011;5793;52.238;13.438;2022-09-29T05:36:14;17.27;;;12.00;;
11473;SDS011;5793;52.238;13.438;2022-09-29T05:38:42;17.70;;;12.87;;
11473;SDS011;5793;52.238;13.438;2022-09-29T05:41:11;16.10;;;11.77;;
11473;SDS011;5793;52.238;13.438;2022-09-29T05:43:41;16.20;;;12.10;;
11473;SDS011;5793;52.238;13.438;2022-09-29T05:46:09;16.40;;;11.40;;
11473;SDS011;5793;52.238;13.438;2022-09-29T05:48:37;14.63;;;11.37;;
11473;SDS011;5793;52.238;13.438;2022-09-29T05:51:06;16.97;;;11.70;;
11473;SDS011;5793;52.238;13.438;2022-09-29T05:53:35;15.43;;;11.60;;
11473;SDS011;5793;52.238;13.438;2022-09-29T05:56:04;17.77;;;12.00;;
11473;SDS011;5793;52.238;13.438;2022-09-29T05:58:34;15.20;;;11.70;;
11473;SDS011;5793;52.238;13.438;2022-09-29T06:01:06;13.73;;;11.03;;
11473;SDS011;5793;52.238;13.438;2022-09-29T06:03:34;16.20;;;12.17;;
11473;SDS011;5793;52.238;13.438;2022-09-29T06:06:03;16.97;;;11.97;;
11473;SDS011;5793;52.238;13.438;2022-09-29T06:08:32;16.07;;;11.37;;
11473;SDS011;5793;52.238;13.438;2022-09-29T06:11:04;14.80;;;11.60;;
11473;SDS011;5793;52.238;13.438;2022-09-29T06:13:36;17.33;;;11.33;;
11473;SDS011;5793;52.238;13.438;2022-09-29T06:16:04;19.70;;;12.13;;
11473;SDS011;5793;52.238;13.438;2022-09-29T06:18:33;15.50;;;11.73;;
11473;SDS011;5793;52.238;13.438;2022-09-29T06:21:01;15.90;;;12.07;;
11473;SDS011;5793;52.238;13.438;2022-09-29T06:23:29;19.80;;;12.30;;
11473;SDS011;5793;52.238;13.438;2022-09-29T06:25:57;15.73;;;11.87;;
11473;SDS011;5793;52.238;13.438;2022-09-29T06:28:27;14.70;;;11.23;;
11473;SDS011;5793;52.238;13.438;2022-09-29T06:30:58;14.60;;;11.53;;
11473;SDS011;5793;52.238;13.438;2022-09-29T06:33:27;16.30;;;11.60;;
11473;SDS011;5793;52.238;13.438;2022-09-29T06:35:55;15.13;;;11.53;;
11473;SDS011;5793;52.238;13.438;2022-09-29T06:38:41;16.27;;;11.17;;
11473;SDS011;5793;52.238;13.438;2022-09-29T06:41:09;15.27;;;11.60;;
11473;SDS011;5793;52.238;13.438;2022-09-29T06:43:37;15.07;;;11.50;;
11473;SDS011;5793;52.238;13.438;2022-09-29T06:46:06;17.60;;;12.10;;
11473;SDS011;5793;52.238;13.438;2022-09-29T06:48:34;14.67;;;11.20;;
11473;SDS011;5793;52.238;13.438;2022-09-29T06:51:05;17.03;;;12.57;;
11473;SDS011;5793;52.238;13.438;2022-09-29T06:53:35;15.57;;;11.70;;
11473;SDS011;5793;52.238;13.438;2022-09-29T06:56:04;16.60;;;12.43;;
11473;SDS011;5793;52.238;13.438;2022-09-29T06:58:34;15.37;;;12.57;;
11473;SDS011;5793;52.238;13.438;2022-09-29T07:01:02;16.37;;;12.23;;
11473;SDS011;5793;52.238;13.438;2022-09-29T07:03:32;18.57;;;12.50;;
11473;SDS011;5793;52.238;13.438;2022-09-29T07:06:01;19.53;;;13.13;;
11473;SDS011;5793;52.238;13.438;2022-09-29T07:08:46;17.33;;;12.70;;
11473;SDS011;5793;52.238;13.438;2022-09-29T07:11:13;17.70;;;12.73;;
11473;SDS011;5793;52.238;13.438;2022-09-29T07:13:41;15.70;;;12.37;;
11473;SDS011;5793;52.238;13.438;2022-09-29T07:16:10;16.73;;;13.77;;
11473;SDS011;5793;52.238;13.438;2022-09-29T07:18:40;16.43;;;12.90;;
11473;SDS011;5793;52.238;13.438;2022-09-29T07:21:09;18.47;;;12.57;;
11473;SDS011;5793;52.238;13.438;2022-09-29T07:23:41;17.47;;;12.73;;
11473;SDS011;5793;52.238;13.438;2022-09-29T07:26:09;17.67;;;13.80;;
11473;SDS011;5793;52.238;13.438;2022-09-29T07:28:36;16.17;;;12.70;;
11473;SDS011;5793;52.238;13.438;2022-09-29T07:31:05;19.23;;;14.03;;
11473;SDS011;5793;52.238;13.438;2022-09-29T07:33:41;18.23;;;14.13;;
11473;SDS011;5793;52.238;13.438;2022-09-29T07:36:10;19.53;;;14.10;;
11473;SDS011;5793;52.238;13.438;2022-09-29T07:38:38;18.53;;;13.77;;
11473;SDS011;5793;52.238;13.438;2022-09-29T07:41:07;18.97;;;14.37;;
11473;SDS011;5793;52.238;13.438;2022-09-29T07:43:37;18.13;;;13.53;;
11473;SDS011;5793;52.238;13.438;2022-09-29T07:46:05;21.20;;;15.40;;
11473;SDS011;5793;52.238;13.438;2022-09-29T07:48:34;18.77;;;15.33;;
11473;SDS011;5793;52.238;13.438;2022-09-29T07:51:05;21.10;;;15.00;;
11473;SDS011;5793;52.238;13.438;2022-09-29T07:53:34;19.67;;;15.37;;
11473;SDS011;5793;52.238;13.438;2022-09-29T07:56:03;19.23;;;14.77;;
11473;SDS011;5793;52.238;13.438;2022-09-29T07:58:32;21.03;;;15.00;;
11473;SDS011;5793;52.238;13.438;2022-09-29T08:01:01;20.30;;;15.70;;
11473;SDS011;5793;52.238;13.438;2022-09-29T08:03:31;20.87;;;14.80;;
11473;SDS011;5793;52.238;13.438;2022-09-29T08:06:00;19.60;;;15.37;;
11473;SDS011;5793;52.238;13.438;2022-09-29T08:08:29;20.33;;;15.67;;
11473;SDS011;5793;52.238;13.438;2022-09-29T08:11:00;20.27;;;15.50;;
11473;SDS011;5793;52.238;13.438;2022-09-29T08:13:29;20.20;;;16.43;;
11473;SDS011;5793;52.238;13.438;2022-09-29T08:15:58;18.63;;;15.77;;
11473;SDS011;5793;52.238;13.438;2022-09-29T08:18:26;20.00;;;15.20;;
11473;SDS011;5793;52.238;13.438;2022-09-29T08:20:54;19.33;;;15.37;;
11473;SDS011;5793;52.238;13.438;2022-09-29T08:23:29;23.13;;;17.20;;
11473;SDS011;5793;52.238;13.438;2022-09-29T08:25:58;24.03;;;17.07;;
11473;SDS011;5793;52.238;13.438;2022-09-29T08:28:28;20.13;;;15.87;;
11473;SDS011;5793;52.238;13.438;2022-09-29T08:31:00;20.70;;;15.73;;
11473;SDS011;5793;52.238;13.438;2022-09-29T08:33:30;18.93;;;15.63;;
11473;SDS011;5793;52.238;13.438;2022-09-29T08:35:58;21.77;;;15.27;;
11473;SDS011;5793;52.238;13.438;2022-09-29T08:38:30;22.80;;;14.90;;
11473;SDS011;5793;52.238;13.438;2022-09-29T08:41:01;19.20;;;15.27;;
11473;SDS011;5793;52.238;13.438;2022-09-29T08:43:30;18.10;;;15.00;;
11473;SDS011;5793;52.238;13.438;2022-09-29T08:46:03;17.63;;;13.50;;
11473;SDS011;5793;52.238;13.438;2022-09-29T08:48:35;19.47;;;15.17;;
11473;SDS011;5793;52.238;13.438;2022-09-29T08:51:24;18.20;;;14.03;;
11473;SDS011;5793;52.238;13.438;2022-09-29T08:54:12;19.67;;;15.47;;
11473;SDS011;5793;52.238;13.438;2022-09-29T08:57:00;19.37;;;15.67;;
11473;SDS011;5793;52.238;13.438;2022-09-29T08:59:28;15.30;;;13.67;;
11473;SDS011;5793;52.238;13.438;2022-09-29T09:01:59;19.27;;;14.30;;
11473;SDS011;5793;52.238;13.438;2022-09-29T09:04:42;21.10;;;14.53;;
11473;SDS011;5793;52.238;13.438;2022-09-29T09:07:33;17.30;;;13.57;;
11473;SDS011;5793;52.238;13.438;2022-09-29T09:10:13;15.83;;;12.87;;
11473;SDS011;5793;52.238;13.438;2022-09-29T09:13:00;16.27;;;13.47;;
11473;SDS011;5793;52.238;13.438;2022-09-29T09:15:47;15.73;;;12.67;;
11473;SDS011;5793;52.238;13.438;2022-09-29T09:18:28;16.00;;;13.57;;
11473;SDS011;5793;52.238;13.438;2022-09-29T09:21:12;16.57;;;12.63;;
11473;SDS011;5793;52.238;13.438;2022-09-29T09:23:49;23.80;;;13.50;;
11473;SDS011;5793;52.238;13.438;2022-09-29T09:26:29;19.53;;;13.23;;
11473;SDS011;5793;52.238;13.438;2022-09-29T09:29:01;15.32;;;13.18;;
11473;SDS011;5793;52.238;13.438;2022-09-29T09:31:37;16.13;;;12.97;;
11473;SDS011;5793;52.238;13.438;2022-09-29T09:34:11;15.07;;;12.23;;
11473;SDS011;5793;52.238;13.438;2022-09-29T09:36:51;15.55;;;12.75;;
11473;SDS011;5793;52.238;13.438;2022-09-29T09:39:33;13.18;;;11.45;;
11473;SDS011;5793;52.238;13.438;2022-09-29T09:42:07;16.20;;;12.13;;
11473;SDS011;5793;52.238;13.438;2022-09-29T09:44:41;13.43;;;11.80;;
11473;SDS011;5793;52.238;13.438;2022-09-29T09:47:18;14.60;;;11.70;;
11473;SDS011;5793;52.238;13.438;2022-09-29T09:49:51;13.15;;;11.43;;
11473;SDS011;5793;52.238;13.438;2022-09-29T09:52:23;14.80;;;12.20;;
11473;SDS011;5793;52.238;13.438;2022-09-29T09:54:58;14.07;;;10.80;;
11473;SDS011;5793;52.238;13.438;2022-09-29T10:00:45;11.57;;;9.95;;
11473;SDS011;5793;52.238;13.438;2022-09-29T10:03:17;13.20;;;10.52;;
11473;SDS011;5793;52.238;13.438;2022-09-29T10:05:45;13.83;;;10.40;;
11473;SDS011;5793;52.238;13.438;2022-09-29T10:08:17;12.90;;;10.57;;
11473;SDS011;5793;52.238;13.438;2022-09-29T10:10:49;10.55;;;9.45;;
11473;SDS011;5793;52.238;13.438;2022-09-29T10:13:26;10.83;;;9.47;;
11473;SDS011;5793;52.238;13.438;2022-09-29T10:15:55;9.33;;;8.33;;
11473;SDS011;5793;52.238;13.438;2022-09-29T10:18:28;10.95;;;9.48;;
11473;SDS011;5793;52.238;13.438;2022-09-29T10:21:02;11.63;;;9.43;;
11473;SDS011;5793;52.238;13.438;2022-09-29T10:23:31;10.00;;;8.98;;
11473;SDS011;5793;52.238;13.438;2022-09-29T10:26:01;10.30;;;8.65;;
11473;SDS011;5793;52.238;13.438;2022-09-29T10:28:43;10.35;;;9.20;;
11473;SDS011;5793;52.238;13.438;2022-09-29T10:31:18;10.73;;;9.07;;
11473;SDS011;5793;52.238;13.438;2022-09-29T10:33:50;11.98;;;8.77;;
11473;SDS011;5793;52.238;13.438;2022-09-29T10:36:20;10.10;;;8.48;;
11473;SDS011;5793;52.238;13.438;2022-09-29T10:38:49;8.70;;;7.82;;
11473;SDS011;5793;52.238;13.438;2022-09-29T10:41:18;11.90;;;8.75;;
11473;SDS011;5793;52.238;13.438;2022-09-29T10:43:48;9.32;;;8.20;;
11473;SDS011;5793;52.238;13.438;2022-09-29T10:46:34;9.02;;;8.13;;
11473;SDS011;5793;52.238;13.438;2022-09-29T10:49:08;9.50;;;8.32;;
11473;SDS011;5793;52.238;13.438;2022-09-29T10:51:39;10.63;;;7.32;;
11473;SDS011;5793;52.238;13.438;2022-09-29T10:54:08;9.18;;;7.63;;
11473;SDS011;5793;52.238;13.438;2022-09-29T10:56:44;7.95;;;7.15;;
11473;SDS011;5793;52.238;13.438;2022-09-29T10:59:17;7.35;;;6.50;;
11473;SDS011;5793;52.238;13.438;2022-09-29T11:01:47;9.70;;;7.72;;
11473;SDS011;5793;52.238;13.438;2022-09-29T11:04:18;10.15;;;8.25;;
11473;SDS011;5793;52.238;13.438;2022-09-29T11:06:49;7.78;;;6.97;;
11473;SDS011;5793;52.238;13.438;2022-09-29T11:09:25;8.70;;;7.80;;
11473;SDS011;5793;52.238;13.438;2022-09-29T11:11:57;9.93;;;7.03;;
11473;SDS011;5793;52.238;13.438;2022-09-29T11:14:40;10.73;;;7.65;;
11473;SDS011;5793;52.238;13.438;2022-09-29T11:17:21;9.27;;;6.90;;
11473;SDS011;5793;52.238;13.438;2022-09-29T11:19:50;7.85;;;5.50;;
11473;SDS011;5793;52.238;13.438;2022-09-29T11:28:22;6.30;;;5.22;;
11473;SDS011;5793;52.238;13.438;2022-09-29T11:31:26;7.53;;;5.35;;
11473;SDS011;5793;52.238;13.438;2022-09-29T11:34:18;6.70;;;5.28;;
11473;SDS011;5793;52.238;13.438;2022-09-29T11:37:04;6.20;;;4.55;;
11473;SDS011;5793;52.238;13.438;2022-09-29T11:39:43;4.78;;;3.92;;
11473;SDS011;5793;52.238;13.438;2022-09-29T11:42:22;4.00;;;3.60;;
11473;SDS011;5793;52.238;13.438;2022-09-29T11:45:02;5.10;;;4.00;;
11473;SDS011;5793;52.238;13.438;2022-09-29T11:47:47;4.53;;;4.13;;
11473;SDS011;5793;52.238;13.438;2022-09-29T11:50:53;5.68;;;4.35;;
11473;SDS011;5793;52.238;13.438;2022-09-29T11:53:39;5.00;;;4.50;;
11473;SDS011;5793;52.238;13.438;2022-09-29T11:56:20;5.50;;;4.53;;
11473;SDS011;5793;52.238;13.438;2022-09-29T11:59:01;5.35;;;4.85;;
11473;SDS011;5793;52.238;13.438;2022-09-29T12:01:45;5.60;;;5.00;;
11473;SDS011;5793;52.238;13.438;2022-09-29T12:04:31;5.80;;;4.47;;
11473;SDS011;5793;52.238;13.438;2022-09-29T12:07:15;4.05;;;3.50;;
11473;SDS011;5793;52.238;13.438;2022-09-29T12:09:57;5.05;;;4.15;;
11473;SDS011;5793;52.238;13.438;2022-09-29T12:12:40;4.22;;;3.60;;
11473;SDS011;5793;52.238;13.438;2022-09-29T12:15:17;7.45;;;4.05;;
11473;SDS011;5793;52.238;13.438;2022-09-29T12:17:53;3.90;;;3.28;;
11473;SDS011;5793;52.238;13.438;2022-09-29T12:20:27;4.10;;;3.70;;
11473;SDS011;5793;52.238;13.438;2022-09-29T12:22:59;3.20;;;2.90;;
11473;SDS011;5793;52.238;13.438;2022-09-29T12:25:32;3.40;;;2.70;;
11473;SDS011;5793;52.238;13.438;2022-09-29T12:28:04;5.35;;;3.30;;
11473;SDS011;5793;52.238;13.438;2022-09-29T12:30:40;3.63;;;3.30;;
11473;SDS011;5793;52.238;13.438;2022-09-29T12:33:14;3.60;;;3.30;;
11473;SDS011;5793;52.238;13.438;2022-09-29T12:35:49;3.95;;;3.35;;
11473;SDS011;5793;52.238;13.438;2022-09-29T12:38:24;5.63;;;3.35;;
11473;SDS011;5793;52.238;13.438;2022-09-29T12:41:10;6.85;;;2.97;;
11473;SDS011;5793;52.238;13.438;2022-09-29T12:43:41;2.70;;;2.50;;
11473;SDS011;5793;52.238;13.438;2022-09-29T12:46:16;3.25;;;2.72;;
11473;SDS011;5793;52.238;13.438;2022-09-29T12:48:50;2.50;;;2.30;;
11473;SDS011;5793;52.238;13.438;2022-09-29T12:51:27;2.30;;;2.10;;
11473;SDS011;5793;52.238;13.438;2022-09-29T12:54:02;2.80;;;2.50;;
11473;SDS011;5793;52.238;13.438;2022-09-29T12:56:40;4.50;;;3.10;;
11473;SDS011;5793;52.238;13.438;2022-09-29T12:59:14;3.60;;;2.50;;
11473;SDS011;5793;52.238;13.438;2022-09-29T13:01:54;2.60;;;2.40;;
11473;SDS011;5793;52.238;13.438;2022-09-29T13:04:32;3.00;;;2.70;;
11473;SDS011;5793;52.238;13.438;2022-09-29T13:07:52;3.90;;;2.88;;
11473;SDS011;5793;52.238;13.438;2022-09-29T13:10:49;3.97;;;2.35;;
11473;SDS011;5793;52.238;13.438;2022-09-29T13:13:32;5.68;;;2.55;;
11473;SDS011;5793;52.238;13.438;2022-09-29T13:16:17;5.07;;;2.30;;
11473;SDS011;5793;52.238;13.438;2022-09-29T13:22:29;2.35;;;1.95;;
11473;SDS011;5793;52.238;13.438;2022-09-29T13:25:21;2.15;;;1.95;;
11473;SDS011;5793;52.238;13.438;2022-09-29T13:27:54;4.13;;;1.90;;
11473;SDS011;5793;52.238;13.438;2022-09-29T13:30:24;3.28;;;1.90;;
11473;SDS011;5793;52.238;13.438;2022-09-29T13:32:57;2.63;;;2.05;;
11473;SDS011;5793;52.238;13.438;2022-09-29T13:35:28;1.92;;;1.80;;
11473;SDS011;5793;52.238;13.438;2022-09-29T13:38:05;2.10;;;1.80;;
11473;SDS011;5793;52.238;13.438;2022-09-29T13:40:35;1.73;;;1.63;;
11473;SDS011;5793;52.238;13.438;2022-09-29T13:43:03;3.58;;;1.75;;
11473;SDS011;5793;52.238;13.438;2022-09-29T13:45:35;2.85;;;1.65;;
11473;SDS011;5793;52.238;13.438;2022-09-29T13:51:20;1.60;;;1.40;;
11473;SDS011;5793;52.238;13.438;2022-09-29T13:56:57;1.63;;;1.30;;
11473;SDS011;5793;52.238;13.438;2022-09-29T14:00:02;3.15;;;1.58;;
11473;SDS011;5793;52.238;13.438;2022-09-29T14:02:59;1.75;;;1.60;;
11473;SDS011;5793;52.238;13.438;2022-09-29T14:05:36;1.65;;;1.45;;
11473;SDS011;5793;52.238;13.438;2022-09-29T14:08:12;1.83;;;1.50;;
11473;SDS011;5793;52.238;13.438;2022-09-29T14:10:45;1.90;;;1.40;;
11473;SDS011;5793;52.238;13.438;2022-09-29T14:13:18;5.13;;;1.90;;
11473;SDS011;5793;52.238;13.438;2022-09-29T14:15:51;1.75;;;1.52;;
11473;SDS011;5793;52.238;13.438;2022-09-29T14:18:31;3.40;;;1.75;;
11473;SDS011;5793;52.238;13.438;2022-09-29T14:21:04;4.75;;;1.90;;
11473;SDS011;5793;52.238;13.438;2022-09-29T14:23:49;3.75;;;1.67;;
11473;SDS011;5793;52.238;13.438;2022-09-29T14:29:13;1.98;;;1.60;;
11473;SDS011;5793;52.238;13.438;2022-09-29T14:31:45;2.13;;;1.80;;
11473;SDS011;5793;52.238;13.438;2022-09-29T14:34:18;3.88;;;1.77;;
11473;SDS011;5793;52.238;13.438;2022-09-29T14:36:48;2.25;;;1.45;;
11473;SDS011;5793;52.238;13.438;2022-09-29T14:39:20;1.63;;;1.40;;
11473;SDS011;5793;52.238;13.438;2022-09-29T14:42:00;1.40;;;1.30;;
11473;SDS011;5793;52.238;13.438;2022-09-29T14:44:30;2.22;;;1.50;;
11473;SDS011;5793;52.238;13.438;2022-09-29T14:47:22;1.38;;;1.23;;
11473;SDS011;5793;52.238;13.438;2022-09-29T14:53:38;4.13;;;1.67;;
11473;SDS011;5793;52.238;13.438;2022-09-29T14:56:23;3.17;;;1.40;;
11473;SDS011;5793;52.238;13.438;2022-09-29T14:59:10;1.60;;;1.30;;
11473;SDS011;5793;52.238;13.438;2022-09-29T15:02:06;2.55;;;1.42;;
11473;SDS011;5793;52.238;13.438;2022-09-29T15:04:46;3.47;;;1.60;;
11473;SDS011;5793;52.238;13.438;2022-09-29T15:07:15;2.08;;;1.73;;
11473;SDS011;5793;52.238;13.438;2022-09-29T15:09:46;1.40;;;1.30;;
11473;SDS011;5793;52.238;13.438;2022-09-29T15:12:18;5.47;;;1.73;;
11473;SDS011;5793;52.238;13.438;2022-09-29T15:14:47;1.50;;;1.40;;
11473;SDS011;5793;52.238;13.438;2022-09-29T15:17:19;3.20;;;1.85;;
11473;SDS011;5793;52.238;13.438;2022-09-29T15:20:07;2.15;;;1.50;;
11473;SDS011;5793;52.238;13.438;2022-09-29T15:22:53;2.10;;;1.60;;
11473;SDS011;5793;52.238;13.438;2022-09-29T15:25:33;3.30;;;1.80;;
11473;SDS011;5793;52.238;13.438;2022-09-29T15:28:05;2.25;;;1.80;;
11473;SDS011;5793;52.238;13.438;2022-09-29T15:30:38;2.37;;;1.70;;
11473;SDS011;5793;52.238;13.438;2022-09-29T15:33:19;1.85;;;1.58;;
11473;SDS011;5793;52.238;13.438;2022-09-29T15:35:50;1.92;;;1.80;;
11473;SDS011;5793;52.238;13.438;2022-09-29T15:38:31;1.80;;;1.70;;